Time;durP1;ratioP1;P1;durP2;ratioP2;P2;SDS_P1;SDS_P2;PMS_P1;PMS_P2;Temp;Humidity;BMP_temperature;BMP_pressure;BME280_temperature;BME280_humidity;BME280_pressure;Samples;Min_cycle;Max_cycle;Signal;HPM_P1;HPM_P2
2023/05/17 00:00:23;;;;;;;8.63;3.63;;;;;;;19.20;74.10;98456.97;5054656;28;20549;-89
2023/05/17 00:02:50;;;;;;;6.03;2.83;;;;;;;19.27;73.60;98447.38;5053768;28;20193;-89
2023/05/17 00:05:16;;;;;;;4.40;2.17;;;;;;;19.28;73.63;98442.91;5054286;28;20181;-90
2023/05/17 00:07:46;;;;;;;6.23;3.13;;;;;;;19.31;73.22;98434.63;5053783;28;20180;-89
2023/05/17 00:10:12;;;;;;;8.00;4.13;;;;;;;19.32;73.07;98441.59;5053928;28;20178;-88
2023/05/17 00:12:39;;;;;;;6.10;3.23;;;;;;;19.37;72.64;98437.53;5053868;28;20212;-89
2023/05/17 00:15:06;;;;;;;7.33;3.60;;;;;;;19.37;72.63;98426.91;5054817;28;20177;-89
2023/05/17 00:17:33;;;;;;;6.03;3.60;;;;;;;19.36;72.52;98429.69;5070166;28;20222;-89
2023/05/17 00:19:59;;;;;;;9.43;3.50;;;;;;;19.37;72.37;98426.91;5054755;28;20676;-89
2023/05/17 00:22:26;;;;;;;6.70;3.40;;;;;;;19.30;72.53;98430.31;5054567;28;20184;-89
2023/05/17 00:24:53;;;;;;;6.30;3.60;;;;;;;19.23;73.11;98435.41;5054704;28;20251;-88
2023/05/17 00:27:20;;;;;;;6.43;3.67;;;;;;;19.30;72.92;98436.47;5070879;28;20628;-88
2023/05/17 00:29:47;;;;;;;8.03;3.80;;;;;;;19.30;72.61;98439.13;5054555;28;20692;-88
2023/05/17 00:32:13;;;;;;;6.57;3.97;;;;;;;19.30;72.69;98440.94;5054252;28;20240;-89
2023/05/17 00:34:40;;;;;;;10.00;4.33;;;;;;;19.23;72.63;98438.06;5054433;28;20180;-90
2023/05/17 00:37:07;;;;;;;7.03;3.83;;;;;;;19.24;72.58;98444.19;5053556;28;20192;-89
2023/05/17 00:39:32;;;;;;;7.33;4.53;;;;;;;19.20;71.92;98430.38;5053068;28;20662;-90
2023/05/17 00:42:00;;;;;;;7.90;3.93;;;;;;;19.07;72.39;98424.63;5054016;28;20191;-89
2023/05/17 00:44:27;;;;;;;16.27;4.63;;;;;;;19.03;72.52;98429.38;5053573;28;20628;-89
2023/05/17 00:46:52;;;;;;;10.00;4.47;;;;;;;19.06;72.17;98427.41;5054244;28;20241;-89
2023/05/17 00:49:19;;;;;;;11.03;5.77;;;;;;;18.84;73.00;98434.81;5053046;28;20174;-90
2023/05/17 00:51:46;;;;;;;12.03;5.17;;;;;;;18.41;74.60;98435.47;5054234;28;20678;-89
2023/05/17 00:54:13;;;;;;;16.00;5.80;;;;;;;18.40;74.72;98432.94;5053653;28;20557;-89
2023/05/17 00:56:40;;;;;;;8.37;4.77;;;;;;;18.28;75.24;98420.84;5053640;28;20181;-89
2023/05/17 00:59:07;;;;;;;9.53;4.10;;;;;;;18.26;75.29;98423.63;5054019;28;20660;-88
2023/05/17 01:01:34;;;;;;;9.20;4.20;;;;;;;18.25;75.15;98424.63;5053779;28;20176;-89
2023/05/17 01:04:01;;;;;;;11.17;4.13;;;;;;;18.24;75.22;98430.06;5053931;28;20169;-88
2023/05/17 01:06:28;;;;;;;11.67;4.10;;;;;;;18.25;75.28;98435.25;5053679;28;20232;-89
2023/05/17 01:08:54;;;;;;;6.93;3.87;;;;;;;18.22;74.95;98424.06;5053772;28;20207;-89
2023/05/17 01:11:50;;;;;;;7.27;3.30;;;;;;;18.13;75.40;98427.63;5053598;28;20647;-88
2023/05/17 01:14:42;;;;;;;9.83;3.37;;;;;;;18.08;75.73;98424.56;5034458;28;20190;-88
2023/05/17 01:17:17;;;;;;;12.53;3.50;;;;;;;18.03;75.68;98424.16;5052827;28;20254;-89
2023/05/17 01:20:05;;;;;;;9.37;4.30;;;;;;;18.02;75.87;98417.16;5053597;28;20189;-88
2023/05/17 01:22:45;;;;;;;6.53;3.60;;;;;;;17.95;75.92;98416.09;5053743;28;20223;-89
2023/05/17 01:25:22;;;;;;;5.83;3.60;;;;;;;17.95;75.97;98416.09;5053736;28;20173;-89
2023/05/17 01:27:49;;;;;;;8.90;3.60;;;;;;;17.90;75.84;98405.09;5052567;28;20192;-89
2023/05/17 01:30:16;;;;;;;6.77;3.90;;;;;;;17.83;76.24;98398.66;5053337;28;20181;-88
2023/05/17 01:32:42;;;;;;;6.47;3.63;;;;;;;17.80;76.23;98405.94;5052445;28;20274;-89
2023/05/17 01:35:13;;;;;;;8.87;4.47;;;;;;;17.79;76.12;98412.19;5069009;28;20240;-89
2023/05/17 01:37:39;;;;;;;11.43;4.90;;;;;;;17.87;75.73;98411.50;5053780;28;20248;-89
2023/05/17 01:40:07;;;;;;;10.10;4.10;;;;;;;17.87;75.94;98414.16;5068896;28;20339;-89
2023/05/17 01:42:39;;;;;;;14.57;4.63;;;;;;;17.89;76.04;98398.94;5053451;28;20173;-89
2023/05/17 01:45:13;;;;;;;12.20;5.03;;;;;;;17.94;75.98;98396.69;5053491;28;20168;-89
2023/05/17 01:48:14;;;;;;;7.10;3.80;;;;;;;17.98;75.96;98376.84;5052268;28;20178;-88
2023/05/17 01:50:42;;;;;;;10.87;4.40;;;;;;;17.99;75.73;98382.97;5054966;28;20193;-89
2023/05/17 01:53:15;;;;;;;9.50;3.80;;;;;;;18.03;75.31;98397.66;5057244;28;20654;-89
2023/05/17 01:55:50;;;;;;;7.83;4.37;;;;;;;17.96;75.70;98391.22;5057605;28;20260;-89
2023/05/17 01:58:20;;;;;;;19.27;4.20;;;;;;;18.06;75.47;98395.50;5056526;28;20205;-90
2023/05/17 02:00:49;;;;;;;9.77;4.73;;;;;;;17.96;75.53;98399.19;5057212;28;20260;-89
2023/05/17 02:03:19;;;;;;;10.53;4.20;;;;;;;17.89;75.81;98411.34;5057116;28;20739;-89
2023/05/17 02:05:46;;;;;;;13.87;5.00;;;;;;;17.82;75.97;98411.06;5049148;28;20190;-90
2023/05/17 02:08:14;;;;;;;17.13;6.17;;;;;;;17.92;75.64;98408.41;5036896;28;20179;-88
2023/05/17 02:10:40;;;;;;;7.80;5.07;;;;;;;17.86;75.84;98404.53;5037526;28;20178;-89
2023/05/17 02:13:06;;;;;;;8.60;4.70;;;;;;;17.80;75.50;98395.31;5037515;28;20178;-89
2023/05/17 02:15:31;;;;;;;16.37;6.13;;;;;;;17.79;75.64;98404.25;5036010;28;20179;-88
2023/05/17 02:17:58;;;;;;;12.50;5.63;;;;;;;17.76;75.47;98414.31;5036775;28;20272;-89
2023/05/17 02:20:25;;;;;;;15.87;5.37;;;;;;;17.70;75.83;98415.72;5049568;28;20186;-89
2023/05/17 02:22:52;;;;;;;10.10;5.70;;;;;;;17.64;75.80;98403.03;5057194;28;20257;-89
2023/05/17 02:25:18;;;;;;;14.10;5.27;;;;;;;17.73;75.92;98409.31;5057288;28;20192;-89
2023/05/17 02:27:45;;;;;;;11.33;5.67;;;;;;;17.68;76.23;98415.03;5056565;28;20178;-89
2023/05/17 02:30:13;;;;;;;16.93;6.93;;;;;;;17.66;76.30;98416.97;5056618;28;20216;-88
2023/05/17 02:32:38;;;;;;;15.40;6.80;;;;;;;17.70;75.67;98420.19;5056679;28;20173;-89
2023/05/17 02:35:06;;;;;;;13.30;6.40;;;;;;;17.64;75.96;98415.44;5056786;28;20200;-89
2023/05/17 02:37:33;;;;;;;14.60;6.30;;;;;;;17.63;76.05;98413.78;5056425;28;20181;-89
2023/05/17 02:39:59;;;;;;;14.17;6.83;;;;;;;17.56;76.51;98410.84;5055934;28;20639;-90
2023/05/17 02:42:26;;;;;;;11.10;6.43;;;;;;;17.40;77.39;98418.50;5055713;28;20201;-90
2023/05/17 02:44:55;;;;;;;10.27;6.23;;;;;;;17.45;76.88;98421.56;5057213;28;20174;-89
2023/05/17 02:47:22;;;;;;;10.93;6.40;;;;;;;17.42;77.51;98426.31;5056352;28;20188;-89
2023/05/17 02:49:49;;;;;;;14.43;7.53;;;;;;;17.36;77.71;98418.94;5056198;28;20181;-89
2023/05/17 02:52:15;;;;;;;18.33;7.70;;;;;;;17.40;77.67;98434.41;5055351;28;20174;-89
2023/05/17 02:54:42;;;;;;;12.93;7.23;;;;;;;17.37;77.65;98429.41;5056206;28;20658;-90
2023/05/17 02:57:09;;;;;;;13.83;7.40;;;;;;;17.32;78.08;98436.91;5055088;28;20184;-89
2023/05/17 02:59:36;;;;;;;14.93;7.83;;;;;;;17.37;77.87;98437.34;5054999;28;20197;-90
2023/05/17 03:02:02;;;;;;;17.43;6.80;;;;;;;17.42;78.07;98439.56;5055945;28;20173;-89
2023/05/17 03:04:29;;;;;;;18.87;7.47;;;;;;;17.46;77.99;98452.41;5055924;28;20242;-89
2023/05/17 03:06:56;;;;;;;12.67;7.27;;;;;;;17.49;78.01;98443.31;5055883;28;20645;-89
2023/05/17 03:09:23;;;;;;;12.00;6.77;;;;;;;17.50;78.02;98448.50;5056151;28;20173;-89
2023/05/17 03:11:49;;;;;;;12.93;6.40;;;;;;;17.50;78.01;98456.44;5054774;28;20185;-89
2023/05/17 03:14:16;;;;;;;12.47;6.80;;;;;;;17.53;78.24;98455.38;5056103;28;20249;-90
2023/05/17 03:16:41;;;;;;;15.27;6.40;;;;;;;17.55;77.85;98462.19;5071541;28;20185;-90
2023/05/17 03:19:08;;;;;;;11.00;6.50;;;;;;;17.64;77.82;98461.34;5055685;28;20274;-90
2023/05/17 03:21:35;;;;;;;15.10;6.47;;;;;;;17.71;77.57;98465.09;5055702;28;20180;-88
2023/05/17 03:24:01;;;;;;;11.43;5.87;;;;;;;17.76;77.12;98454.94;5055953;28;20190;-89
2023/05/17 03:26:27;;;;;;;12.30;6.47;;;;;;;17.79;77.10;98459.91;5054567;28;20174;-90
2023/05/17 03:28:54;;;;;;;17.63;7.60;;;;;;;17.77;77.07;98467.19;5054652;28;20572;-90
2023/05/17 03:31:21;;;;;;;15.23;7.50;;;;;;;17.81;77.22;98459.78;5054597;28;20182;-90
2023/05/17 03:33:48;;;;;;;19.10;9.33;;;;;;;17.99;76.14;98462.53;5055448;28;20180;-90
2023/05/17 03:36:15;;;;;;;20.23;10.17;;;;;;;18.04;75.89;98465.59;5054578;28;20178;-89
2023/05/17 03:38:42;;;;;;;24.13;12.07;;;;;;;18.04;75.41;98463.78;5054411;28;20294;-90
2023/05/17 03:41:09;;;;;;;18.00;9.83;;;;;;;18.03;75.83;98461.28;5055346;28;20181;-90
2023/05/17 03:43:36;;;;;;;13.63;6.57;;;;;;;18.06;75.51;98455.66;5054383;28;20193;-90
2023/05/17 03:46:02;;;;;;;15.07;6.90;;;;;;;17.98;76.04;98456.38;5054399;28;20185;-89
2023/05/17 03:48:28;;;;;;;11.70;7.33;;;;;;;17.86;76.49;98451.41;5054272;28;20170;-89
2023/05/17 03:50:54;;;;;;;11.07;6.70;;;;;;;17.90;76.63;98460.75;5054231;28;20177;-89
2023/05/17 03:53:19;;;;;;;15.37;7.40;;;;;;;17.96;76.17;98458.34;5054158;28;20654;-90
2023/05/17 03:55:45;;;;;;;10.63;5.87;;;;;;;17.93;76.43;98473.72;5054945;28;20220;-89
2023/05/17 03:58:12;;;;;;;10.37;5.80;;;;;;;17.89;76.81;98489.09;5034869;28;20206;-89
2023/05/17 04:00:37;;;;;;;9.77;5.10;;;;;;;18.04;76.33;98492.13;5035106;28;20223;-89
2023/05/17 04:03:04;;;;;;;12.10;6.57;;;;;;;18.03;76.72;98487.81;5034356;28;20298;-89
2023/05/17 04:05:29;;;;;;;11.57;6.07;;;;;;;18.01;76.86;98485.28;5035226;28;20201;-90
2023/05/17 04:07:55;;;;;;;9.63;5.47;;;;;;;18.05;77.17;98488.50;5053279;28;20584;-89
2023/05/17 04:10:22;;;;;;;9.33;5.27;;;;;;;18.14;76.60;98483.16;5054854;28;20555;-89
2023/05/17 04:12:48;;;;;;;10.43;5.80;;;;;;;18.12;76.22;98489.59;5042569;28;20192;-89
2023/05/17 04:15:16;;;;;;;14.07;5.60;;;;;;;18.12;76.43;98485.13;5034433;28;20178;-89
2023/05/17 04:17:43;;;;;;;9.27;5.33;;;;;;;18.15;76.25;98484.84;5052484;28;20523;-90
2023/05/17 04:20:11;;;;;;;14.90;6.10;;;;;;;18.17;76.74;98492.63;5053601;28;20205;-89
2023/05/17 04:22:38;;;;;;;10.50;5.97;;;;;;;18.18;76.58;98494.31;5053931;28;20213;-89
2023/05/17 04:25:05;;;;;;;12.83;5.30;;;;;;;18.20;76.77;98495.00;5054972;28;20206;-89
2023/05/17 04:27:44;;;;;;;8.70;5.10;;;;;;;18.36;76.35;98495.25;5054632;28;20231;-90
2023/05/17 04:30:12;;;;;;;8.43;5.40;;;;;;;18.48;76.17;98494.09;5053598;28;20181;-90
2023/05/17 04:32:39;;;;;;;9.80;5.70;;;;;;;18.54;75.81;98498.84;5054427;28;20201;-90
2023/05/17 04:35:08;;;;;;;14.93;6.03;;;;;;;18.52;76.39;98498.16;5054587;28;20195;-90
2023/05/17 04:37:53;;;;;;;;;;;;;;;;;;;;;
2023/05/17 04:40:20;;;;;;;13.23;5.80;;;;;;;18.61;75.41;98496.41;5054317;28;20521;-90
2023/05/17 04:42:47;;;;;;;9.77;6.17;;;;;;;18.60;75.67;98490.31;5053718;28;20185;-91
2023/05/17 04:45:52;;;;;;;11.40;5.53;;;;;;;18.65;75.79;98487.19;5054247;28;20207;-91
2023/05/17 04:48:43;;;;;;;11.73;5.57;;;;;;;18.77;74.47;98500.13;5033395;28;20165;-90
2023/05/17 04:51:08;;;;;;;12.53;5.73;;;;;;;18.75;74.42;98498.59;5033620;28;20179;-90
2023/05/17 04:53:41;;;;;;;10.70;5.67;;;;;;;18.74;74.63;98497.75;5044712;28;20183;-91
2023/05/17 04:56:47;;;;;;;13.00;5.57;;;;;;;18.78;74.27;98499.16;5055064;28;20172;-91
2023/05/17 04:59:46;;;;;;;;;;;;;;;;;;;;;
2023/05/17 05:02:46;;;;;;;;;;;;;;;;;;;;;
2023/05/17 05:05:43;;;;;;;13.20;6.33;;;;;;;18.96;72.41;98494.72;5054243;28;20201;-91
2023/05/17 05:09:18;;;;;;;;;;;;;;;;;;;;;
2023/05/17 05:12:26;;;;;;;;;;;;;;;;;;;;;
2023/05/17 05:29:47;;;;;;;;;;;;;;;;;;;;;
2023/05/17 05:35:54;;;;;;;;;;;;;;;;;;;;;
2023/05/17 05:39:28;;;;;;;;;;;;;;;;;;;;;
2023/05/17 05:45:53;;;;;;;9.87;5.77;;;;;;;18.93;72.54;98518.91;4886360;29;20264;-91
2023/05/17 05:48:48;;;;;;;;;;;;;;;;;;;;;
2023/05/17 05:51:37;;;;;;;;;;;;;;;;;;;;;
2023/05/17 05:54:32;;;;;;;;;;;;;;;;;;;;;
2023/05/17 05:57:32;;;;;;;14.27;6.83;;;;;;;18.91;73.36;98514.75;4920870;28;20166;-90
2023/05/17 06:00:31;;;;;;;16.00;7.53;;;;;;;18.90;73.79;98513.91;5001511;28;20301;-91
2023/05/17 06:06:19;;;;;;;;;;;;;;;;;;;;;
2023/05/17 06:08:48;;;;;;;12.50;7.50;;;;;;;18.99;74.01;98514.84;5053506;28;20172;-89
2023/05/17 06:11:25;;;;;;;;;;;;;;;;;;;;;
2023/05/17 06:14:11;;;;;;;14.03;7.43;;;;;;;18.80;73.65;98518.44;5048568;28;20192;-90
2023/05/17 06:16:41;;;;;;;17.30;7.40;;;;;;;18.75;73.85;98510.06;5033738;28;20537;-91
2023/05/17 06:19:08;;;;;;;13.50;7.43;;;;;;;18.79;75.02;98516.75;5034038;28;20240;-90
2023/05/17 06:21:41;;;;;;;13.37;8.07;;;;;;;18.92;74.25;98516.38;5052772;28;20602;-90
2023/05/17 06:24:08;;;;;;;12.20;7.17;;;;;;;18.99;74.43;98515.69;5053621;28;20247;-90
2023/05/17 06:26:45;;;;;;;15.03;7.93;;;;;;;18.94;75.47;98525.91;5052048;28;20196;-91
2023/05/17 06:29:12;;;;;;;15.30;7.97;;;;;;;18.91;75.98;98512.09;5051830;28;20200;-91
2023/05/17 06:31:39;;;;;;;12.50;7.00;;;;;;;19.01;76.30;98519.00;5052233;28;20238;-90
2023/05/17 06:34:08;;;;;;;13.93;7.43;;;;;;;19.25;76.39;98518.44;5052194;28;20200;-89
2023/05/17 06:36:34;;;;;;;12.53;7.37;;;;;;;19.36;76.11;98528.03;5055240;28;20239;-90
2023/05/17 06:39:01;;;;;;;14.37;7.67;;;;;;;19.39;74.96;98536.56;5056767;28;20293;-89
2023/05/17 06:41:35;;;;;;;13.00;7.27;;;;;;;19.49;74.39;98531.19;5055541;28;20185;-90
2023/05/17 06:44:01;;;;;;;12.17;7.20;;;;;;;19.65;73.24;98526.03;5055389;28;20617;-89
2023/05/17 06:46:27;;;;;;;15.53;9.00;;;;;;;19.71;72.75;98530.72;5056660;28;20186;-90
2023/05/17 06:48:53;;;;;;;15.33;8.10;;;;;;;19.82;72.45;98530.50;5055345;28;20623;-89
2023/05/17 06:51:18;;;;;;;18.37;9.67;;;;;;;19.82;71.62;98527.84;5056014;28;20252;-89
2023/05/17 06:53:45;;;;;;;13.37;8.70;;;;;;;19.83;71.32;98529.50;5056118;28;20180;-88
2023/05/17 06:56:13;;;;;;;16.13;9.60;;;;;;;19.87;70.69;98525.53;5056393;28;20258;-89
2023/05/17 06:58:39;;;;;;;15.20;9.03;;;;;;;19.92;71.50;98523.25;5054113;28;20296;-89
2023/05/17 07:01:06;;;;;;;18.03;10.07;;;;;;;19.94;71.15;98523.94;5055538;28;20189;-89
2023/05/17 07:03:34;;;;;;;15.97;9.47;;;;;;;19.94;72.06;98531.91;5054540;28;20226;-88
2023/05/17 07:06:01;;;;;;;16.80;9.50;;;;;;;20.00;71.92;98535.78;5071590;28;20585;-88
2023/05/17 07:08:26;;;;;;;14.70;9.50;;;;;;;20.11;71.79;98540.88;5054921;28;20181;-89
2023/05/17 07:10:53;;;;;;;17.03;9.83;;;;;;;20.19;71.28;98530.28;5055176;28;20188;-89
2023/05/17 07:13:18;;;;;;;16.17;8.97;;;;;;;20.11;71.00;98533.72;5055837;28;20189;-90
2023/05/17 07:15:45;;;;;;;20.13;9.10;;;;;;;20.21;71.16;98529.13;5056401;28;20178;-89
2023/05/17 07:18:12;;;;;;;16.43;8.63;;;;;;;20.19;70.60;98525.81;5055600;28;20264;-89
2023/05/17 07:20:38;;;;;;;20.03;9.33;;;;;;;20.11;69.96;98527.56;5055985;28;20170;-88
2023/05/17 07:23:03;;;;;;;15.67;9.00;;;;;;;20.03;70.08;98525.69;5055651;28;20639;-88
2023/05/17 07:25:30;;;;;;;13.50;8.23;;;;;;;19.95;71.77;98528.28;5055912;28;20649;-88
2023/05/17 07:27:57;;;;;;;16.00;8.03;;;;;;;20.07;70.66;98521.72;5055768;28;20177;-88
2023/05/17 07:30:22;;;;;;;16.97;8.83;;;;;;;20.14;70.73;98533.41;5071182;28;20510;-89
2023/05/17 07:32:49;;;;;;;15.60;7.73;;;;;;;20.18;70.95;98529.44;5054314;28;20200;-88
2023/05/17 07:35:16;;;;;;;15.67;7.80;;;;;;;20.23;71.19;98524.53;5055733;28;20260;-88
2023/05/17 07:37:43;;;;;;;15.27;7.63;;;;;;;20.29;70.44;98536.38;5055363;28;20178;-89
2023/05/17 07:40:09;;;;;;;14.60;7.80;;;;;;;20.14;70.39;98533.41;5055246;28;20201;-88
2023/05/17 07:42:35;;;;;;;15.50;8.33;;;;;;;20.19;71.07;98541.78;5055262;28;20192;-88
2023/05/17 07:45:01;;;;;;;17.07;7.83;;;;;;;20.13;72.20;98537.06;5055128;28;20614;-88
2023/05/17 07:47:28;;;;;;;15.43;7.80;;;;;;;20.23;72.12;98543.16;5052805;28;20193;-88
2023/05/17 07:49:55;;;;;;;17.97;7.47;;;;;;;20.29;71.28;98530.19;5055670;28;20181;-88
2023/05/17 07:52:22;;;;;;;12.17;6.63;;;;;;;20.37;70.20;98533.75;5055280;28;20170;-88
2023/05/17 07:54:49;;;;;;;9.30;5.43;;;;;;;20.38;70.28;98543.44;5055271;28;20185;-89
2023/05/17 07:57:15;;;;;;;10.77;5.60;;;;;;;20.41;70.32;98545.78;5053950;28;20557;-89
2023/05/17 07:59:42;;;;;;;12.20;6.03;;;;;;;20.48;70.25;98548.63;5070505;28;20561;-88
2023/05/17 08:02:08;;;;;;;10.27;5.77;;;;;;;20.42;70.66;98546.59;5054255;28;20191;-89
2023/05/17 08:04:35;;;;;;;10.60;5.90;;;;;;;20.37;70.45;98554.22;5054784;28;20251;-88
2023/05/17 08:07:02;;;;;;;12.67;6.13;;;;;;;20.35;69.51;98546.41;5054612;28;20265;-88
2023/05/17 08:09:29;;;;;;;10.47;6.40;;;;;;;20.38;69.94;98555.91;5055047;28;20196;-88
2023/05/17 08:11:56;;;;;;;11.80;6.93;;;;;;;20.37;70.98;98539.09;5055068;28;20615;-88
2023/05/17 08:14:23;;;;;;;11.83;6.00;;;;;;;20.40;70.37;98540.59;5054662;28;20185;-89
2023/05/17 08:16:50;;;;;;;12.80;6.47;;;;;;;20.41;71.19;98539.63;5054643;28;20174;-89
2023/05/17 08:19:17;;;;;;;14.67;5.83;;;;;;;20.42;71.53;98535.94;5053953;28;20219;-89
2023/05/17 08:21:45;;;;;;;14.37;7.03;;;;;;;20.42;71.22;98546.59;5054683;28;20173;-90
2023/05/17 08:27:09;;;;;;;14.27;7.53;;;;;;;20.35;71.07;98556.22;5050808;28;20199;-91
2023/05/17 08:33:28;;;;;;;14.13;7.57;;;;;;;20.43;71.22;98553.59;5030584;28;20204;-92
2023/05/17 08:35:56;;;;;;;18.97;8.27;;;;;;;20.25;71.84;98544.84;5041175;28;20201;-91
2023/05/17 08:38:28;;;;;;;15.60;7.17;;;;;;;20.17;73.64;98541.09;5053932;28;20213;-92
2023/05/17 08:40:55;;;;;;;15.80;7.27;;;;;;;20.18;73.49;98533.94;5053330;28;20247;-92
2023/05/17 08:43:23;;;;;;;13.60;7.70;;;;;;;20.23;73.83;98526.31;5070247;28;20243;-90
2023/05/17 08:45:51;;;;;;;17.10;9.17;;;;;;;20.14;74.50;98533.41;5054318;28;20178;-91
2023/05/17 08:48:19;;;;;;;12.70;8.00;;;;;;;20.09;75.66;98543.69;5054088;28;20672;-90
2023/05/17 08:50:49;;;;;;;17.23;8.70;;;;;;;20.12;75.23;98540.72;5054021;28;20169;-90
2023/05/17 08:53:16;;;;;;;18.40;8.83;;;;;;;20.08;75.61;98534.03;5054421;28;20638;-89
2023/05/17 08:55:48;;;;;;;19.60;9.10;;;;;;;20.07;75.30;98534.19;5053622;28;20186;-90
2023/05/17 08:58:18;;;;;;;17.60;9.33;;;;;;;20.06;76.09;98536.03;5052420;28;20322;-89
2023/05/17 09:00:46;;;;;;;17.90;9.27;;;;;;;20.19;76.14;98531.13;5053873;28;20173;-90
2023/05/17 09:03:16;;;;;;;18.53;8.90;;;;;;;20.25;75.92;98545.66;5053505;28;20275;-89
2023/05/17 09:05:51;;;;;;;15.40;10.20;;;;;;;20.30;75.39;98547.84;5054180;28;20162;-89
2023/05/17 09:08:17;;;;;;;16.60;10.47;;;;;;;20.16;75.36;98547.41;5052764;28;20169;-89
2023/05/17 09:10:44;;;;;;;20.47;10.13;;;;;;;20.22;75.41;98552.13;5053644;28;20232;-90
2023/05/17 09:13:11;;;;;;;18.80;9.17;;;;;;;20.22;74.94;98549.44;5052868;28;20221;-90
2023/05/17 09:15:48;;;;;;;13.53;7.73;;;;;;;19.94;74.92;98552.38;5053868;28;20628;-89
2023/05/17 09:18:16;;;;;;;14.93;8.10;;;;;;;19.83;75.89;98550.78;5053566;28;20299;-88
2023/05/17 09:20:49;;;;;;;16.70;8.47;;;;;;;19.78;75.68;98562.88;5052665;28;20592;-90
2023/05/17 09:23:19;;;;;;;20.23;8.90;;;;;;;19.84;75.44;98556.91;5052552;28;20582;-90
2023/05/17 09:25:49;;;;;;;16.40;9.10;;;;;;;19.73;76.67;98559.84;5052485;28;20178;-89
2023/05/17 09:28:20;;;;;;;17.80;8.87;;;;;;;19.74;76.07;98559.66;5053384;28;20185;-90
2023/05/17 09:30:48;;;;;;;17.13;9.70;;;;;;;19.80;76.26;98555.56;5053720;28;20180;-90
2023/05/17 09:33:15;;;;;;;17.33;10.07;;;;;;;19.80;76.53;98561.72;5057798;28;20188;-89
2023/05/17 09:35:42;;;;;;;17.40;10.00;;;;;;;19.80;77.02;98567.06;5054808;28;20186;-90
2023/05/17 09:38:12;;;;;;;19.23;9.33;;;;;;;19.83;76.61;98561.44;5052680;28;20314;-90
2023/05/17 09:40:41;;;;;;;17.83;9.33;;;;;;;19.84;76.76;98560.44;5052273;28;20279;-90
2023/05/17 09:43:10;;;;;;;17.30;10.23;;;;;;;19.77;76.98;98567.34;5053989;28;20231;-91
2023/05/17 09:45:37;;;;;;;16.37;9.70;;;;;;;19.78;76.67;98566.38;5069111;28;20184;-91
2023/05/17 09:48:24;;;;;;;16.93;9.57;;;;;;;19.78;77.54;98544.25;5053687;28;20629;-89
2023/05/17 09:50:51;;;;;;;15.67;9.80;;;;;;;19.73;78.46;98534.09;5068931;28;20185;-89
2023/05/17 09:53:32;;;;;;;18.63;9.63;;;;;;;19.71;78.42;98536.03;5052108;28;20192;-89
2023/05/17 09:56:01;;;;;;;15.80;8.50;;;;;;;19.64;79.54;98550.94;5051862;28;20173;-88
2023/05/17 09:58:31;;;;;;;15.17;7.90;;;;;;;19.52;80.60;98549.50;5053229;28;20198;-90
2023/05/17 10:01:05;;;;;;;15.93;8.40;;;;;;;19.65;80.29;98552.63;5053242;28;20181;-90
2023/05/17 10:03:35;;;;;;;13.30;7.60;;;;;;;19.71;79.91;98557.31;5053108;28;20237;-90
2023/05/17 10:06:11;;;;;;;14.03;8.47;;;;;;;19.72;79.22;98552.84;5068593;28;20212;-91
2023/05/17 10:08:43;;;;;;;15.00;8.70;;;;;;;19.71;78.82;98557.31;5053467;28;20174;-89
2023/05/17 10:11:09;;;;;;;12.90;7.20;;;;;;;19.80;79.01;98545.78;5055464;28;20587;-89
2023/05/17 10:13:48;;;;;;;14.30;7.70;;;;;;;19.89;79.03;98552.00;5056487;28;20233;-89
2023/05/17 10:16:16;;;;;;;12.57;7.00;;;;;;;19.97;78.79;98550.22;5057519;28;20207;-89
2023/05/17 10:18:43;;;;;;;11.90;7.23;;;;;;;20.13;76.69;98542.38;5057077;28;20262;-89
2023/05/17 10:21:11;;;;;;;12.60;7.00;;;;;;;20.08;76.51;98528.72;5056921;28;20181;-89
2023/05/17 10:23:43;;;;;;;13.60;7.90;;;;;;;20.11;76.43;98519.59;5055700;28;20185;-91
2023/05/17 10:26:12;;;;;;;11.23;7.63;;;;;;;20.02;76.82;98510.69;5056843;28;20174;-89
2023/05/17 10:28:39;;;;;;;12.57;7.87;;;;;;;19.77;77.89;98498.22;5056859;28;20169;-89
2023/05/17 10:31:09;;;;;;;20.53;9.00;;;;;;;19.48;79.63;98494.94;5055879;28;20189;-91
2023/05/17 10:33:36;;;;;;;13.73;8.20;;;;;;;19.24;80.28;98490.19;5056613;28;20200;-90
2023/05/17 10:36:05;;;;;;;15.73;9.53;;;;;;;19.15;81.97;98496.44;5056836;28;20632;-90
2023/05/17 10:38:32;;;;;;;13.10;8.13;;;;;;;19.15;82.54;98491.13;5056757;28;20201;-91
2023/05/17 10:41:08;;;;;;;14.97;9.53;;;;;;;19.35;82.72;98491.81;5056724;28;20211;-91
2023/05/17 10:43:37;;;;;;;20.10;8.73;;;;;;;19.41;82.75;98485.91;5055864;28;20180;-90
2023/05/17 10:46:13;;;;;;;14.93;9.70;;;;;;;19.15;83.66;98492.94;5056644;28;20258;-89
2023/05/17 10:48:41;;;;;;;15.50;9.03;;;;;;;19.39;83.97;98487.91;5056935;28;20178;-91
2023/05/17 10:51:11;;;;;;;14.17;8.40;;;;;;;19.45;84.12;98490.78;5055592;28;20182;-92
2023/05/17 10:54:04;;;;;;;17.50;9.13;;;;;;;19.49;83.61;98483.34;5055890;28;20201;-91
2023/05/17 10:56:35;;;;;;;19.17;9.67;;;;;;;19.19;83.83;98479.19;5055636;28;20185;-92
2023/05/17 10:59:26;;;;;;;15.63;8.60;;;;;;;19.23;85.28;98477.91;5056675;28;20205;-89
2023/05/17 11:02:03;;;;;;;17.97;10.37;;;;;;;19.24;85.60;98473.41;5055398;28;20704;-91
2023/05/17 11:04:40;;;;;;;19.00;10.47;;;;;;;19.50;85.03;98469.88;5056068;28;20200;-91
2023/05/17 11:07:25;;;;;;;16.23;9.90;;;;;;;19.53;84.03;98476.72;5056165;28;20173;-90
2023/05/17 11:09:55;;;;;;;16.33;9.10;;;;;;;19.61;84.41;98474.13;5055230;28;20218;-92
2023/05/17 11:12:52;;;;;;;15.27;9.67;;;;;;;19.67;84.28;98475.34;5055085;28;20246;-91
2023/05/17 11:15:24;;;;;;;14.20;8.77;;;;;;;19.65;83.88;98478.19;5071568;28;20426;-91
2023/05/17 11:18:07;;;;;;;14.10;8.63;;;;;;;19.73;83.66;98474.75;5055068;28;20211;-90
2023/05/17 11:20:33;;;;;;;12.83;7.90;;;;;;;19.78;83.79;98470.63;5056225;28;20196;-89
2023/05/17 11:23:05;;;;;;;16.07;9.00;;;;;;;19.64;84.12;98473.84;5054591;28;20254;-90
2023/05/17 11:25:36;;;;;;;12.73;7.97;;;;;;;19.91;84.47;98481.72;5054942;28;20182;-90
2023/05/17 11:28:17;;;;;;;14.87;8.17;;;;;;;20.06;84.29;98477.47;5054837;28;20188;-90
2023/05/17 11:30:49;;;;;;;10.93;7.27;;;;;;;20.14;83.53;98480.19;5055926;28;20237;-90
2023/05/17 11:33:17;;;;;;;12.50;6.60;;;;;;;20.16;82.77;98480.88;5055643;28;20161;-90
2023/05/17 11:35:43;;;;;;;10.10;7.17;;;;;;;20.18;81.24;98481.53;5055400;28;20181;-89
2023/05/17 11:38:29;;;;;;;9.70;6.97;;;;;;;20.06;81.26;98487.28;5055526;28;20174;-91
2023/05/17 11:40:56;;;;;;;10.70;6.60;;;;;;;20.14;80.81;98480.19;5055568;28;20178;-90
2023/05/17 11:43:24;;;;;;;10.77;6.67;;;;;;;20.31;81.23;98477.69;5055870;28;20580;-90
2023/05/17 11:46:00;;;;;;;12.03;7.27;;;;;;;20.23;80.59;98479.28;5071083;28;20217;-91
2023/05/17 11:48:28;;;;;;;12.67;7.57;;;;;;;20.14;80.64;98477.53;5055913;28;20184;-90
2023/05/17 11:50:55;;;;;;;11.10;6.97;;;;;;;20.21;80.27;98477.72;5071090;28;20245;-90
2023/05/17 11:53:21;;;;;;;11.17;7.23;;;;;;;20.22;80.31;98477.59;5055789;28;20185;-90
2023/05/17 11:55:50;;;;;;;11.97;7.13;;;;;;;20.04;80.58;98479.47;5054127;28;20197;-91
2023/05/17 11:58:19;;;;;;;12.17;6.63;;;;;;;20.04;81.64;98466.16;5054999;28;20653;-89
2023/05/17 12:00:51;;;;;;;11.73;5.97;;;;;;;20.05;80.69;98465.16;5054306;28;20181;-90
2023/05/17 12:03:19;;;;;;;11.57;7.17;;;;;;;20.21;81.19;98472.41;5053923;28;20237;-90
2023/05/17 12:05:50;;;;;;;14.80;6.70;;;;;;;20.32;80.45;98466.84;5055154;28;20652;-90
2023/05/17 12:08:18;;;;;;;10.60;6.90;;;;;;;20.46;80.23;98468.09;5053935;28;20561;-90
2023/05/17 12:10:50;;;;;;;11.90;7.53;;;;;;;20.44;79.67;98464.78;5055712;28;20192;-89
2023/05/17 12:13:18;;;;;;;11.70;7.40;;;;;;;20.50;79.95;98464.13;5070593;28;20534;-89
2023/05/17 12:16:11;;;;;;;12.50;6.83;;;;;;;20.65;79.34;98460.69;5054882;28;20185;-89
2023/05/17 12:18:47;;;;;;;11.67;6.73;;;;;;;20.64;78.86;98460.88;5055137;28;20626;-89
2023/05/17 12:21:17;;;;;;;11.50;6.93;;;;;;;20.63;79.04;98469.84;5055038;28;20536;-90
2023/05/17 12:23:45;;;;;;;11.97;7.30;;;;;;;20.42;78.25;98458.75;5053668;28;20181;-89
2023/05/17 12:26:18;;;;;;;13.93;7.83;;;;;;;20.42;79.11;98456.09;5054465;28;20181;-89
2023/05/17 12:28:52;;;;;;;9.33;6.50;;;;;;;20.39;79.00;98449.25;5053854;28;20231;-89
2023/05/17 12:31:40;;;;;;;14.97;6.90;;;;;;;20.27;79.20;98453.19;5054568;28;20595;-90
2023/05/17 12:34:08;;;;;;;14.67;7.60;;;;;;;20.26;79.75;98451.50;5054074;28;20628;-90